sensor_id;sensor_type;location;lat;lon;timestamp;pressure;altitude;pressure_sealevel;temperature;humidity
77685;BME280;66844;46.092;18.268;2023-08-12T00:00:30;99917.63;;;16.70;62.38
77685;BME280;66844;46.092;18.268;2023-08-12T00:01:02;99927.16;;;16.74;62.68
77685;BME280;66844;46.092;18.268;2023-08-12T00:01:34;99915.66;;;16.72;62.24
77685;BME280;66844;46.092;18.268;2023-08-12T00:02:06;99921.03;;;16.72;62.60
77685;BME280;66844;46.092;18.268;2023-08-12T00:02:39;99922.03;;;16.71;62.47
77685;BME280;66844;46.092;18.268;2023-08-12T00:03:11;99929.22;;;16.70;62.19
77685;BME280;66844;46.092;18.268;2023-08-12T00:03:43;99925.53;;;16.71;62.17
77685;BME280;66844;46.092;18.268;2023-08-12T00:04:15;99921.41;;;16.67;62.84
77685;BME280;66844;46.092;18.268;2023-08-12T00:04:48;99920.53;;;16.67;62.21
77685;BME280;66844;46.092;18.268;2023-08-12T00:05:20;99926.16;;;16.64;62.85
77685;BME280;66844;46.092;18.268;2023-08-12T00:05:52;99913.78;;;16.61;62.79
77685;BME280;66844;46.092;18.268;2023-08-12T00:06:24;99920.53;;;16.67;62.48
77685;BME280;66844;46.092;18.268;2023-08-12T00:06:56;99915.41;;;16.64;62.53
77685;BME280;66844;46.092;18.268;2023-08-12T00:07:28;99922.47;;;16.65;62.18
77685;BME280;66844;46.092;18.268;2023-08-12T00:08:00;99922.47;;;16.65;62.93
77685;BME280;66844;46.092;18.268;2023-08-12T00:08:32;99917.09;;;16.65;62.62
77685;BME280;66844;46.092;18.268;2023-08-12T00:09:04;99922.72;;;16.62;62.73
77685;BME280;66844;46.092;18.268;2023-08-12T00:09:36;99915.63;;;16.61;62.95
77685;BME280;66844;46.092;18.268;2023-08-12T00:10:10;99914.88;;;16.59;62.52
77685;BME280;66844;46.092;18.268;2023-08-12T00:10:43;99914.75;;;16.60;62.57
77685;BME280;66844;46.092;18.268;2023-08-12T00:11:15;99914.88;;;16.59;62.99
77685;BME280;66844;46.092;18.268;2023-08-12T00:11:47;99913.94;;;16.60;62.75
77685;BME280;66844;46.092;18.268;2023-08-12T00:12:19;99917.56;;;16.59;63.30
77685;BME280;66844;46.092;18.268;2023-08-12T00:12:51;99914.03;;;16.58;62.64
77685;BME280;66844;46.092;18.268;2023-08-12T00:13:23;99923.06;;;16.57;62.89
77685;BME280;66844;46.092;18.268;2023-08-12T00:13:55;99915.00;;;16.57;63.04
77685;BME280;66844;46.092;18.268;2023-08-12T00:14:27;99919.50;;;16.57;62.79
77685;BME280;66844;46.092;18.268;2023-08-12T00:14:59;99916.00;;;16.56;62.76
77685;BME280;66844;46.092;18.268;2023-08-12T00:15:31;99916.00;;;16.56;62.56
77685;BME280;66844;46.092;18.268;2023-08-12T00:16:03;99916.81;;;16.57;62.54
77685;BME280;66844;46.092;18.268;2023-08-12T00:16:35;99924.13;;;16.55;62.90
77685;BME280;66844;46.092;18.268;2023-08-12T00:17:07;99915.09;;;16.56;62.71
77685;BME280;66844;46.092;18.268;2023-08-12T00:17:40;99916.72;;;16.58;62.76
77685;BME280;66844;46.092;18.268;2023-08-12T00:18:13;99918.31;;;16.61;62.53
77685;BME280;66844;46.092;18.268;2023-08-12T00:18:45;99919.78;;;16.65;61.89
77685;BME280;66844;46.092;18.268;2023-08-12T00:19:17;99921.28;;;16.69;62.03
77685;BME280;66844;46.092;18.268;2023-08-12T00:19:49;99915.78;;;16.70;61.80
77685;BME280;66844;46.092;18.268;2023-08-12T00:20:21;99913.09;;;16.70;61.79
77685;BME280;66844;46.092;18.268;2023-08-12T00:20:53;99916.66;;;16.71;62.13
77685;BME280;66844;46.092;18.268;2023-08-12T00:21:26;99921.16;;;16.70;61.85
77685;BME280;66844;46.092;18.268;2023-08-12T00:21:58;99923.00;;;16.70;62.81
77685;BME280;66844;46.092;18.268;2023-08-12T00:22:30;99918.47;;;16.70;62.28
77685;BME280;66844;46.092;18.268;2023-08-12T00:23:02;99923.72;;;16.72;62.06
77685;BME280;66844;46.092;18.268;2023-08-12T00:23:39;99918.34;;;16.72;62.14
77685;BME280;66844;46.092;18.268;2023-08-12T00:24:15;99917.47;;;16.71;62.06
77685;BME280;66844;46.092;18.268;2023-08-12T00:24:48;99913.56;;;16.64;62.00
77685;BME280;66844;46.092;18.268;2023-08-12T00:25:20;99917.09;;;16.65;62.63
77685;BME280;66844;46.092;18.268;2023-08-12T00:25:52;99913.56;;;16.64;62.30
77685;BME280;66844;46.092;18.268;2023-08-12T00:26:24;99923.09;;;16.68;62.39
77685;BME280;66844;46.092;18.268;2023-08-12T00:26:56;99913.34;;;16.67;62.38
77685;BME280;66844;46.092;18.268;2023-08-12T00:27:28;99912.72;;;16.64;62.19
77685;BME280;66844;46.092;18.268;2023-08-12T00:28:00;99910.88;;;16.64;62.52
77685;BME280;66844;46.092;18.268;2023-08-12T00:28:33;99917.34;;;16.62;62.69
77685;BME280;66844;46.092;18.268;2023-08-12T00:29:05;99911.97;;;16.62;62.42
77685;BME280;66844;46.092;18.268;2023-08-12T00:29:37;99907.13;;;16.67;62.13
77685;BME280;66844;46.092;18.268;2023-08-12T00:30:09;99915.16;;;16.67;62.25
77685;BME280;66844;46.092;18.268;2023-08-12T00:30:41;99919.56;;;16.68;nan
77685;BME280;66844;46.092;18.268;2023-08-12T00:31:13;99908.81;;;16.68;61.72
77685;BME280;66844;46.092;18.268;2023-08-12T00:31:45;99914.06;;;16.69;62.39
77685;BME280;66844;46.092;18.268;2023-08-12T00:32:17;99919.44;;;16.69;62.24
77685;BME280;66844;46.092;18.268;2023-08-12T00:32:49;99912.50;;;16.67;61.82
77685;BME280;66844;46.092;18.268;2023-08-12T00:33:21;99914.06;;;16.69;62.14
77685;BME280;66844;46.092;18.268;2023-08-12T00:33:53;99911.28;;;16.71;61.98
77685;BME280;66844;46.092;18.268;2023-08-12T00:34:25;99914.59;;;16.74;62.03
77685;BME280;66844;46.092;18.268;2023-08-12T00:34:57;99914.59;;;16.74;61.87
77685;BME280;66844;46.092;18.268;2023-08-12T00:35:29;99915.56;;;16.73;61.91
77685;BME280;66844;46.092;18.268;2023-08-12T00:36:01;99917.38;;;16.73;62.02
77685;BME280;66844;46.092;18.268;2023-08-12T00:36:33;99920.16;;;16.71;61.45
77685;BME280;66844;46.092;18.268;2023-08-12T00:37:05;99913.09;;;16.70;61.76
77685;BME280;66844;46.092;18.268;2023-08-12T00:37:37;99922.75;;;16.73;61.45
77685;BME280;66844;46.092;18.268;2023-08-12T00:38:09;99911.28;;;16.71;61.57
77685;BME280;66844;46.092;18.268;2023-08-12T00:38:41;99911.03;;;16.74;61.78
77685;BME280;66844;46.092;18.268;2023-08-12T00:39:13;99916.28;;;16.75;61.49
77685;BME280;66844;46.092;18.268;2023-08-12T00:39:45;99916.41;;;16.74;61.42
77685;BME280;66844;46.092;18.268;2023-08-12T00:40:17;99910.19;;;16.73;61.45
77685;BME280;66844;46.092;18.268;2023-08-12T00:40:49;99910.19;;;16.73;61.63
77685;BME280;66844;46.092;18.268;2023-08-12T00:41:21;99912.00;;;16.73;61.97
77685;BME280;66844;46.092;18.268;2023-08-12T00:41:53;99911.03;;;16.74;62.03
77685;BME280;66844;46.092;18.268;2023-08-12T00:42:26;99905.78;;;16.72;61.75
77685;BME280;66844;46.092;18.268;2023-08-12T00:42:58;99912.00;;;16.73;61.68
77685;BME280;66844;46.092;18.268;2023-08-12T00:43:30;99905.53;;;16.75;61.87
77685;BME280;66844;46.092;18.268;2023-08-12T00:44:02;99907.50;;;16.73;61.64
77685;BME280;66844;46.092;18.268;2023-08-12T00:44:34;99914.69;;;16.73;62.05
77685;BME280;66844;46.092;18.268;2023-08-12T00:45:09;99909.56;;;16.70;62.14
77685;BME280;66844;46.092;18.268;2023-08-12T00:45:42;99912.25;;;16.70;62.37
77685;BME280;66844;46.092;18.268;2023-08-12T00:46:14;99909.66;;;16.68;61.93
77685;BME280;66844;46.092;18.268;2023-08-12T00:46:48;99908.59;;;16.71;61.99
77685;BME280;66844;46.092;18.268;2023-08-12T00:47:21;99910.53;;;16.69;62.22
77685;BME280;66844;46.092;18.268;2023-08-12T00:47:53;99910.66;;;16.67;61.83
77685;BME280;66844;46.092;18.268;2023-08-12T00:48:25;99913.56;;;16.64;62.49
77685;BME280;66844;46.092;18.268;2023-08-12T00:48:57;99911.25;;;16.60;62.31
77685;BME280;66844;46.092;18.268;2023-08-12T00:49:31;99911.25;;;16.60;62.89
77685;BME280;66844;46.092;18.268;2023-08-12T00:50:06;99911.66;;;16.54;62.74
77685;BME280;66844;46.092;18.268;2023-08-12T00:50:39;99905.31;;;16.55;62.66
77685;BME280;66844;46.092;18.268;2023-08-12T00:51:12;99914.47;;;16.52;63.07
77685;BME280;66844;46.092;18.268;2023-08-12T00:51:44;99916.28;;;16.52;63.26
77685;BME280;66844;46.092;18.268;2023-08-12T00:52:18;99911.78;;;16.52;62.87
77685;BME280;66844;46.092;18.268;2023-08-12T00:52:51;99911.78;;;16.52;63.02
77685;BME280;66844;46.092;18.268;2023-08-12T00:53:23;99911.78;;;16.52;62.88
77685;BME280;66844;46.092;18.268;2023-08-12T00:53:58;99909.94;;;16.52;62.67
77685;BME280;66844;46.092;18.268;2023-08-12T00:54:30;99912.63;;;16.52;63.01
77685;BME280;66844;46.092;18.268;2023-08-12T00:55:03;99909.31;;;16.49;62.55
77685;BME280;66844;46.092;18.268;2023-08-12T00:55:35;99907.38;;;16.51;62.60
77685;BME280;66844;46.092;18.268;2023-08-12T00:56:07;99910.31;;;16.48;63.07
77685;BME280;66844;46.092;18.268;2023-08-12T00:56:39;99916.63;;;16.47;62.97
77685;BME280;66844;46.092;18.268;2023-08-12T00:57:11;99907.47;;;16.49;62.87
77685;BME280;66844;46.092;18.268;2023-08-12T00:57:43;99911.78;;;16.52;62.63
77685;BME280;66844;46.092;18.268;2023-08-12T00:58:16;99916.63;;;16.47;62.89
77685;BME280;66844;46.092;18.268;2023-08-12T00:58:48;99920.28;;;16.46;63.15
77685;BME280;66844;46.092;18.268;2023-08-12T00:59:22;99916.53;;;16.48;62.91
77685;BME280;66844;46.092;18.268;2023-08-12T00:59:55;99913.22;;;16.45;63.24
77685;BME280;66844;46.092;18.268;2023-08-12T01:00:28;99912.38;;;16.44;63.00
77685;BME280;66844;46.092;18.268;2023-08-12T01:01:00;99911.25;;;16.47;63.13
77685;BME280;66844;46.092;18.268;2023-08-12T01:01:33;99914.06;;;16.45;63.01
77685;BME280;66844;46.092;18.268;2023-08-12T01:02:05;99910.53;;;16.45;62.87
77685;BME280;66844;46.092;18.268;2023-08-12T01:02:38;99904.31;;;16.44;63.04
77685;BME280;66844;46.092;18.268;2023-08-12T01:03:10;99912.13;;;16.47;63.24
77685;BME280;66844;46.092;18.268;2023-08-12T01:03:43;99904.94;;;16.48;63.27
77685;BME280;66844;46.092;18.268;2023-08-12T01:04:15;99905.88;;;16.47;63.08
77685;BME280;66844;46.092;18.268;2023-08-12T01:04:47;99912.00;;;16.49;62.71
77685;BME280;66844;46.092;18.268;2023-08-12T01:05:19;99911.88;;;16.50;63.02
77685;BME280;66844;46.092;18.268;2023-08-12T01:05:52;99905.78;;;16.48;63.12
77685;BME280;66844;46.092;18.268;2023-08-12T01:06:24;99903.94;;;16.49;62.80
77685;BME280;66844;46.092;18.268;2023-08-12T01:06:56;99899.41;;;16.49;63.01
77685;BME280;66844;46.092;18.268;2023-08-12T01:07:28;99907.47;;;16.49;62.59
77685;BME280;66844;46.092;18.268;2023-08-12T01:08:00;99907.47;;;16.49;62.88
77685;BME280;66844;46.092;18.268;2023-08-12T01:08:32;99900.28;;;16.50;62.67
77685;BME280;66844;46.092;18.268;2023-08-12T01:09:07;99900.28;;;16.50;62.93
77685;BME280;66844;46.092;18.268;2023-08-12T01:09:39;99903.84;;;16.50;63.17
77685;BME280;66844;46.092;18.268;2023-08-12T01:10:12;99901.25;;;16.49;62.60
77685;BME280;66844;46.092;18.268;2023-08-12T01:10:53;99903.09;;;16.48;62.66
77685;BME280;66844;46.092;18.268;2023-08-12T01:11:42;99902.00;;;16.51;62.81
77685;BME280;66844;46.092;18.268;2023-08-12T01:12:25;99896.72;;;16.49;62.59
77685;BME280;66844;46.092;18.268;2023-08-12T01:13:16;99900.91;;;16.54;62.85
77685;BME280;66844;46.092;18.268;2023-08-12T01:14:07;99900.81;;;16.55;62.68
77685;BME280;66844;46.092;18.268;2023-08-12T01:15:27;99901.66;;;16.56;62.26
77685;BME280;66844;46.092;18.268;2023-08-12T01:15:34;99897.06;;;16.58;62.24
77685;BME280;66844;46.092;18.268;2023-08-12T01:16:08;99900.50;;;16.60;61.75
77685;BME280;66844;46.092;18.268;2023-08-12T01:16:46;99902.19;;;16.61;62.16
77685;BME280;66844;46.092;18.268;2023-08-12T01:17:20;99899.41;;;16.62;61.73
77685;BME280;66844;46.092;18.268;2023-08-12T01:17:54;99902.81;;;16.64;61.64
77685;BME280;66844;46.092;18.268;2023-08-12T01:18:27;99901.75;;;16.67;61.48
77685;BME280;66844;46.092;18.268;2023-08-12T01:19:00;99901.59;;;16.68;61.14
77685;BME280;66844;46.092;18.268;2023-08-12T01:19:37;99913.72;;;16.74;60.99
77685;BME280;66844;46.092;18.268;2023-08-12T01:20:11;99904.72;;;16.75;61.46
77685;BME280;66844;46.092;18.268;2023-08-12T01:20:47;99905.53;;;16.75;61.11
77685;BME280;66844;46.092;18.268;2023-08-12T01:21:21;99897.38;;;16.77;61.10
77685;BME280;66844;46.092;18.268;2023-08-12T01:21:55;99912.28;;;16.81;61.80
77685;BME280;66844;46.092;18.268;2023-08-12T01:22:32;99906.16;;;16.79;61.22
77685;BME280;66844;46.092;18.268;2023-08-12T01:23:13;99905.09;;;16.81;61.07
77685;BME280;66844;46.092;18.268;2023-08-12T01:23:45;99908.63;;;16.82;61.16
77685;BME280;66844;46.092;18.268;2023-08-12T01:24:21;99902.41;;;16.81;60.79
77685;BME280;66844;46.092;18.268;2023-08-12T01:24:53;99901.19;;;16.85;60.68
77685;BME280;66844;46.092;18.268;2023-08-12T01:25:25;99907.53;;;16.84;61.19
77685;BME280;66844;46.092;18.268;2023-08-12T01:25:57;99907.53;;;16.84;60.83
77685;BME280;66844;46.092;18.268;2023-08-12T01:26:29;99907.53;;;16.84;60.70
77685;BME280;66844;46.092;18.268;2023-08-12T01:27:02;99906.66;;;16.84;61.31
77685;BME280;66844;46.092;18.268;2023-08-12T01:27:35;99909.25;;;16.85;60.62
77685;BME280;66844;46.092;18.268;2023-08-12T01:28:08;99909.34;;;16.84;61.18
77685;BME280;66844;46.092;18.268;2023-08-12T01:28:40;99905.81;;;16.83;61.24
77685;BME280;66844;46.092;18.268;2023-08-12T01:29:12;99912.81;;;16.86;60.47
77685;BME280;66844;46.092;18.268;2023-08-12T01:29:46;99904.84;;;16.84;60.90
77685;BME280;66844;46.092;18.268;2023-08-12T01:30:20;99910.13;;;16.86;60.97
77685;BME280;66844;46.092;18.268;2023-08-12T01:31:11;99910.13;;;16.86;61.21
77685;BME280;66844;46.092;18.268;2023-08-12T01:31:57;99906.44;;;16.87;60.69
77685;BME280;66844;46.092;18.268;2023-08-12T01:32:31;99903.75;;;16.87;61.26
77685;BME280;66844;46.092;18.268;2023-08-12T01:34:11;99908.25;;;16.86;60.91
77685;BME280;66844;46.092;18.268;2023-08-12T01:35:41;99902.78;;;16.88;60.22
77685;BME280;66844;46.092;18.268;2023-08-12T01:36:19;99907.19;;;16.89;60.15
77685;BME280;66844;46.092;18.268;2023-08-12T01:36:56;99905.47;;;16.88;60.69
77685;BME280;66844;46.092;18.268;2023-08-12T01:37:32;99905.34;;;16.89;60.24
77685;BME280;66844;46.092;18.268;2023-08-12T01:38:06;99909.72;;;16.90;60.64
77685;BME280;66844;46.092;18.268;2023-08-12T01:38:39;99907.03;;;16.90;60.59
77685;BME280;66844;46.092;18.268;2023-08-12T01:39:13;99911.56;;;16.90;60.36
77685;BME280;66844;46.092;18.268;2023-08-12T01:39:47;99905.47;;;16.88;60.82
77685;BME280;66844;46.092;18.268;2023-08-12T01:40:20;99911.69;;;16.88;60.64
77685;BME280;66844;46.092;18.268;2023-08-12T01:40:53;99909.00;;;16.88;60.79
77685;BME280;66844;46.092;18.268;2023-08-12T01:41:26;99902.78;;;16.88;60.78
77685;BME280;66844;46.092;18.268;2023-08-12T01:41:59;99901.91;;;16.87;60.34
77685;BME280;66844;46.092;18.268;2023-08-12T01:42:34;99902.78;;;16.88;60.67
77685;BME280;66844;46.092;18.268;2023-08-12T01:43:06;99899.13;;;16.89;60.60
77685;BME280;66844;46.092;18.268;2023-08-12T01:43:41;99905.47;;;16.88;60.64
77685;BME280;66844;46.092;18.268;2023-08-12T01:44:13;99905.34;;;16.89;60.02
77685;BME280;66844;46.092;18.268;2023-08-12T01:44:46;99902.66;;;16.89;60.17
77685;BME280;66844;46.092;18.268;2023-08-12T01:45:20;99908.16;;;16.88;60.69
77685;BME280;66844;46.092;18.268;2023-08-12T01:45:52;99906.31;;;16.88;60.33
77685;BME280;66844;46.092;18.268;2023-08-12T01:46:24;99901.66;;;16.90;60.00
77685;BME280;66844;46.092;18.268;2023-08-12T01:46:56;99904.50;;;16.89;60.20
77685;BME280;66844;46.092;18.268;2023-08-12T01:47:28;99906.44;;;16.87;60.67
77685;BME280;66844;46.092;18.268;2023-08-12T01:48:00;99907.44;;;16.86;61.02
77685;BME280;66844;46.092;18.268;2023-08-12T01:48:32;99906.66;;;16.84;60.97
77685;BME280;66844;46.092;18.268;2023-08-12T01:49:04;99910.47;;;16.81;60.73
77685;BME280;66844;46.092;18.268;2023-08-12T01:49:36;99902.50;;;16.80;60.62
77685;BME280;66844;46.092;18.268;2023-08-12T01:50:09;99908.75;;;16.80;61.13
77685;BME280;66844;46.092;18.268;2023-08-12T01:50:41;99906.91;;;16.81;60.69
77685;BME280;66844;46.092;18.268;2023-08-12T01:51:19;99909.47;;;16.82;60.78
77685;BME280;66844;46.092;18.268;2023-08-12T01:51:51;99902.41;;;16.81;60.95
77685;BME280;66844;46.092;18.268;2023-08-12T01:52:23;99905.09;;;16.81;61.13
77685;BME280;66844;46.092;18.268;2023-08-12T01:52:55;99906.78;;;16.82;61.30
77685;BME280;66844;46.092;18.268;2023-08-12T01:53:27;99899.47;;;16.84;60.56
77685;BME280;66844;46.092;18.268;2023-08-12T01:53:59;99907.78;;;16.81;60.73
77685;BME280;66844;46.092;18.268;2023-08-12T01:54:31;99904.94;;;16.83;60.63
77685;BME280;66844;46.092;18.268;2023-08-12T01:55:05;99905.81;;;16.83;60.71
77685;BME280;66844;46.092;18.268;2023-08-12T01:55:37;99914.72;;;16.84;60.57
77685;BME280;66844;46.092;18.268;2023-08-12T01:56:09;99897.75;;;16.83;60.52
77685;BME280;66844;46.092;18.268;2023-08-12T01:56:41;99910.13;;;16.86;60.70
77685;BME280;66844;46.092;18.268;2023-08-12T01:57:13;99905.56;;;16.86;60.86
77685;BME280;66844;46.092;18.268;2023-08-12T01:57:45;99902.88;;;16.86;60.19
77685;BME280;66844;46.092;18.268;2023-08-12T01:58:17;99903.00;;;16.85;60.77
77685;BME280;66844;46.092;18.268;2023-08-12T01:58:49;99899.22;;;16.87;60.89
77685;BME280;66844;46.092;18.268;2023-08-12T01:59:21;99896.69;;;16.86;60.50
77685;BME280;66844;46.092;18.268;2023-08-12T01:59:53;99909.00;;;16.88;60.66
77685;BME280;66844;46.092;18.268;2023-08-12T02:00:25;99899.97;;;16.89;60.58
77685;BME280;66844;46.092;18.268;2023-08-12T02:00:57;99907.91;;;16.91;60.37
77685;BME280;66844;46.092;18.268;2023-08-12T02:01:29;99892.88;;;16.88;60.66
77685;BME280;66844;46.092;18.268;2023-08-12T02:02:01;99898.97;;;16.90;60.28
77685;BME280;66844;46.092;18.268;2023-08-12T02:02:33;99899.97;;;16.89;60.49
77685;BME280;66844;46.092;18.268;2023-08-12T02:03:05;99906.09;;;16.91;60.68
77685;BME280;66844;46.092;18.268;2023-08-12T02:03:38;99892.66;;;16.91;60.36
77685;BME280;66844;46.092;18.268;2023-08-12T02:04:10;99902.19;;;16.95;60.37
77685;BME280;66844;46.092;18.268;2023-08-12T02:04:42;99898.63;;;16.95;60.46
77685;BME280;66844;46.092;18.268;2023-08-12T02:05:15;99901.31;;;16.95;59.93
77685;BME280;66844;46.092;18.268;2023-08-12T02:05:47;99893.16;;;16.96;60.02
77685;BME280;66844;46.092;18.268;2023-08-12T02:06:19;99896.69;;;16.97;60.29
77685;BME280;66844;46.092;18.268;2023-08-12T02:06:52;99904.53;;;17.00;59.90
77685;BME280;66844;46.092;18.268;2023-08-12T02:07:24;99891.94;;;17.01;60.31
77685;BME280;66844;46.092;18.268;2023-08-12T02:07:56;99898.03;;;17.03;60.20
77685;BME280;66844;46.092;18.268;2023-08-12T02:08:28;99896.09;;;17.05;59.60
77685;BME280;66844;46.092;18.268;2023-08-12T02:09:00;99895.09;;;17.06;59.52
77685;BME280;66844;46.092;18.268;2023-08-12T02:09:32;99903.19;;;17.06;60.27
77685;BME280;66844;46.092;18.268;2023-08-12T02:10:04;99901.34;;;17.06;59.84
77685;BME280;66844;46.092;18.268;2023-08-12T02:10:36;99897.81;;;17.06;59.68
77685;BME280;66844;46.092;18.268;2023-08-12T02:11:08;99900.63;;;17.04;59.72
77685;BME280;66844;46.092;18.268;2023-08-12T02:11:40;99896.72;;;17.08;59.68
77685;BME280;66844;46.092;18.268;2023-08-12T02:12:12;99893.19;;;17.08;59.48
77685;BME280;66844;46.092;18.268;2023-08-12T02:12:44;99895.09;;;17.06;59.98
77685;BME280;66844;46.092;18.268;2023-08-12T02:13:17;99899.53;;;17.07;59.94
77685;BME280;66844;46.092;18.268;2023-08-12T02:13:48;99902.22;;;17.07;60.30
77685;BME280;66844;46.092;18.268;2023-08-12T02:14:20;99900.38;;;17.07;60.00
77685;BME280;66844;46.092;18.268;2023-08-12T02:14:52;99899.41;;;17.08;60.19
77685;BME280;66844;46.092;18.268;2023-08-12T02:15:24;99894.75;;;17.10;59.76
77685;BME280;66844;46.092;18.268;2023-08-12T02:15:56;99899.16;;;17.11;60.03
77685;BME280;66844;46.092;18.268;2023-08-12T02:16:28;99900.75;;;17.14;59.43
77685;BME280;66844;46.092;18.268;2023-08-12T02:17:00;99898.06;;;17.14;59.54
77685;BME280;66844;46.092;18.268;2023-08-12T02:17:32;99900.66;;;17.15;59.50
77685;BME280;66844;46.092;18.268;2023-08-12T02:18:05;99904.31;;;17.14;59.50
77685;BME280;66844;46.092;18.268;2023-08-12T02:18:37;99896.22;;;17.14;59.99
77685;BME280;66844;46.092;18.268;2023-08-12T02:19:09;99898.94;;;17.14;59.89
77685;BME280;66844;46.092;18.268;2023-08-12T02:19:41;99898.94;;;17.14;59.81
77685;BME280;66844;46.092;18.268;2023-08-12T02:20:13;99897.09;;;17.15;59.48
77685;BME280;66844;46.092;18.268;2023-08-12T02:20:47;99902.47;;;17.15;59.65
77685;BME280;66844;46.092;18.268;2023-08-12T02:21:19;99895.28;;;17.15;59.92
77685;BME280;66844;46.092;18.268;2023-08-12T02:21:51;99902.47;;;17.15;59.80
77685;BME280;66844;46.092;18.268;2023-08-12T02:22:23;99894.50;;;17.13;59.50
77685;BME280;66844;46.092;18.268;2023-08-12T02:22:55;99899.88;;;17.13;59.88
77685;BME280;66844;46.092;18.268;2023-08-12T02:23:27;99896.34;;;17.13;59.91
77685;BME280;66844;46.092;18.268;2023-08-12T02:23:59;99896.34;;;17.13;59.89
77685;BME280;66844;46.092;18.268;2023-08-12T02:24:31;99896.34;;;17.13;59.77
77685;BME280;66844;46.092;18.268;2023-08-12T02:25:04;99890.09;;;17.12;59.81
77685;BME280;66844;46.092;18.268;2023-08-12T02:25:36;99895.38;;;17.14;59.77
77685;BME280;66844;46.092;18.268;2023-08-12T02:26:08;99897.97;;;17.15;60.11
77685;BME280;66844;46.092;18.268;2023-08-12T02:26:40;99897.09;;;17.15;59.61
77685;BME280;66844;46.092;18.268;2023-08-12T02:27:12;99901.63;;;17.14;59.86
77685;BME280;66844;46.092;18.268;2023-08-12T02:27:44;99897.09;;;17.15;60.05
77685;BME280;66844;46.092;18.268;2023-08-12T02:28:16;99898.06;;;17.14;60.04
77685;BME280;66844;46.092;18.268;2023-08-12T02:28:49;99900.75;;;17.14;59.91
77685;BME280;66844;46.092;18.268;2023-08-12T02:29:21;99897.34;;;17.12;59.64
77685;BME280;66844;46.092;18.268;2023-08-12T02:29:52;99899.88;;;17.13;59.75
77685;BME280;66844;46.092;18.268;2023-08-12T02:30:24;99894.66;;;17.12;59.74
77685;BME280;66844;46.092;18.268;2023-08-12T02:30:57;99901.84;;;17.11;59.94
77685;BME280;66844;46.092;18.268;2023-08-12T02:31:29;99906.38;;;17.11;60.05
77685;BME280;66844;46.092;18.268;2023-08-12T02:32:01;99899.16;;;17.11;60.09
77685;BME280;66844;46.092;18.268;2023-08-12T02:32:33;99899.41;;;17.08;59.95
77685;BME280;66844;46.092;18.268;2023-08-12T02:33:05;99895.97;;;17.06;60.26
77685;BME280;66844;46.092;18.268;2023-08-12T02:33:37;99903.06;;;17.07;59.91
77685;BME280;66844;46.092;18.268;2023-08-12T02:34:09;99904.03;;;17.06;60.12
77685;BME280;66844;46.092;18.268;2023-08-12T02:34:41;99901.25;;;17.08;60.41
77685;BME280;66844;46.092;18.268;2023-08-12T02:35:13;99903.06;;;17.07;59.90
77685;BME280;66844;46.092;18.268;2023-08-12T02:35:45;99902.31;;;17.05;60.11
77685;BME280;66844;46.092;18.268;2023-08-12T02:36:17;99902.09;;;17.08;60.51
77685;BME280;66844;46.092;18.268;2023-08-12T02:36:49;99904.03;;;17.06;59.68
77685;BME280;66844;46.092;18.268;2023-08-12T02:37:21;99899.63;;;17.05;60.04
77685;BME280;66844;46.092;18.268;2023-08-12T02:37:53;99903.19;;;17.06;60.04
77685;BME280;66844;46.092;18.268;2023-08-12T02:38:25;99907.59;;;17.07;59.88
77685;BME280;66844;46.092;18.268;2023-08-12T02:38:57;99902.22;;;17.07;60.23
77685;BME280;66844;46.092;18.268;2023-08-12T02:39:29;99900.63;;;17.04;60.30
77685;BME280;66844;46.092;18.268;2023-08-12T02:40:01;99904.19;;;17.05;59.91
77685;BME280;66844;46.092;18.268;2023-08-12T02:40:36;99900.50;;;17.06;59.99
77685;BME280;66844;46.092;18.268;2023-08-12T02:41:08;99906.22;;;17.01;60.17
77685;BME280;66844;46.092;18.268;2023-08-12T02:41:40;99903.41;;;17.03;60.31
77685;BME280;66844;46.092;18.268;2023-08-12T02:42:12;99909.91;;;17.00;60.42
77685;BME280;66844;46.092;18.268;2023-08-12T02:42:44;99904.53;;;17.00;60.63
77685;BME280;66844;46.092;18.268;2023-08-12T02:43:16;99902.09;;;16.97;60.65
77685;BME280;66844;46.092;18.268;2023-08-12T02:43:48;99898.75;;;16.93;60.83
77685;BME280;66844;46.092;18.268;2023-08-12T02:44:20;99898.75;;;16.93;60.50
77685;BME280;66844;46.092;18.268;2023-08-12T02:44:52;99903.16;;;16.94;60.68
77685;BME280;66844;46.092;18.268;2023-08-12T02:45:24;99900.47;;;16.94;60.67
77685;BME280;66844;46.092;18.268;2023-08-12T02:45:56;99900.72;;;16.91;60.90
77685;BME280;66844;46.092;18.268;2023-08-12T02:46:28;99907.19;;;16.89;60.95
77685;BME280;66844;46.092;18.268;2023-08-12T02:47:00;99908.03;;;16.89;61.02
77685;BME280;66844;46.092;18.268;2023-08-12T02:47:32;99904.50;;;16.89;60.74
77685;BME280;66844;46.092;18.268;2023-08-12T02:48:04;99904.50;;;16.89;60.73
77685;BME280;66844;46.092;18.268;2023-08-12T02:48:36;99910.94;;;16.86;60.88
77685;BME280;66844;46.092;18.268;2023-08-12T02:49:08;99907.63;;;16.83;61.20
77685;BME280;66844;46.092;18.268;2023-08-12T02:49:40;99908.63;;;16.82;61.62
77685;BME280;66844;46.092;18.268;2023-08-12T02:50:12;99909.59;;;16.81;61.55
77685;BME280;66844;46.092;18.268;2023-08-12T02:50:44;99905.31;;;16.78;61.98
77685;BME280;66844;46.092;18.268;2023-08-12T02:51:16;99904.47;;;16.78;61.29
77685;BME280;66844;46.092;18.268;2023-08-12T02:51:48;99896.41;;;16.78;62.01
77685;BME280;66844;46.092;18.268;2023-08-12T02:52:20;99908.22;;;16.75;61.89
77685;BME280;66844;46.092;18.268;2023-08-12T02:52:52;99908.22;;;16.75;61.60
77685;BME280;66844;46.092;18.268;2023-08-12T02:53:24;99901.25;;;16.73;61.83
77685;BME280;66844;46.092;18.268;2023-08-12T02:53:56;99913.97;;;16.71;61.95
77685;BME280;66844;46.092;18.268;2023-08-12T02:54:28;99906.00;;;16.69;61.83